sensor_id;sensor_type;location;lat;lon;timestamp;P1;durP1;ratioP1;P2;durP2;ratioP2
18138;SDS011;9195;53.176;9.486;2022-10-26T00:02:13;3.70;;;3.60;;
18138;SDS011;9195;53.176;9.486;2022-10-26T00:04:38;3.70;;;3.60;;
18138;SDS011;9195;53.176;9.486;2022-10-26T00:07:04;3.70;;;3.60;;
18138;SDS011;9195;53.176;9.486;2022-10-26T00:09:29;3.67;;;3.57;;
18138;SDS011;9195;53.176;9.486;2022-10-26T00:11:55;3.90;;;3.80;;
18138;SDS011;9195;53.176;9.486;2022-10-26T00:14:20;3.73;;;3.63;;
18138;SDS011;9195;53.176;9.486;2022-10-26T00:16:46;3.70;;;3.60;;
18138;SDS011;9195;53.176;9.486;2022-10-26T00:19:12;4.00;;;3.90;;
18138;SDS011;9195;53.176;9.486;2022-10-26T00:21:37;4.50;;;4.30;;
18138;SDS011;9195;53.176;9.486;2022-10-26T00:24:03;4.20;;;4.10;;
18138;SDS011;9195;53.176;9.486;2022-10-26T00:26:29;3.93;;;3.83;;
18138;SDS011;9195;53.176;9.486;2022-10-26T00:28:54;3.87;;;3.77;;
18138;SDS011;9195;53.176;9.486;2022-10-26T00:31:21;3.87;;;3.77;;
18138;SDS011;9195;53.176;9.486;2022-10-26T00:33:51;3.90;;;3.80;;
18138;SDS011;9195;53.176;9.486;2022-10-26T00:36:17;3.90;;;3.80;;
18138;SDS011;9195;53.176;9.486;2022-10-26T00:38:51;3.70;;;3.60;;
18138;SDS011;9195;53.176;9.486;2022-10-26T00:41:19;3.97;;;3.87;;
18138;SDS011;9195;53.176;9.486;2022-10-26T00:43:50;3.70;;;3.60;;
18138;SDS011;9195;53.176;9.486;2022-10-26T00:46:17;3.77;;;3.67;;
18138;SDS011;9195;53.176;9.486;2022-10-26T00:48:53;3.70;;;3.60;;
18138;SDS011;9195;53.176;9.486;2022-10-26T00:53:50;3.80;;;3.70;;
18138;SDS011;9195;53.176;9.486;2022-10-26T00:56:17;3.80;;;3.70;;
18138;SDS011;9195;53.176;9.486;2022-10-26T00:58:43;4.00;;;3.90;;
18138;SDS011;9195;53.176;9.486;2022-10-26T01:01:09;3.77;;;3.67;;
18138;SDS011;9195;53.176;9.486;2022-10-26T01:03:35;4.07;;;3.97;;
18138;SDS011;9195;53.176;9.486;2022-10-26T01:06:02;3.80;;;3.70;;
18138;SDS011;9195;53.176;9.486;2022-10-26T01:08:29;3.70;;;3.60;;
18138;SDS011;9195;53.176;9.486;2022-10-26T01:10:56;3.57;;;3.47;;
18138;SDS011;9195;53.176;9.486;2022-10-26T01:13:24;3.60;;;3.50;;
18138;SDS011;9195;53.176;9.486;2022-10-26T01:16:11;3.73;;;3.63;;
18138;SDS011;9195;53.176;9.486;2022-10-26T01:21:38;3.47;;;3.37;;
18138;SDS011;9195;53.176;9.486;2022-10-26T01:24:34;3.57;;;3.47;;
18138;SDS011;9195;53.176;9.486;2022-10-26T01:35:55;3.40;;;3.30;;
18138;SDS011;9195;53.176;9.486;2022-10-26T01:41:23;3.50;;;3.40;;
18138;SDS011;9195;53.176;9.486;2022-10-26T01:44:31;3.50;;;3.40;;
18138;SDS011;9195;53.176;9.486;2022-10-26T01:46:48;3.50;;;3.40;;
18138;SDS011;9195;53.176;9.486;2022-10-26T01:49:19;3.40;;;3.30;;
18138;SDS011;9195;53.176;9.486;2022-10-26T01:51:47;3.40;;;3.30;;
18138;SDS011;9195;53.176;9.486;2022-10-26T01:54:14;3.30;;;3.20;;
18138;SDS011;9195;53.176;9.486;2022-10-26T01:56:41;3.30;;;3.20;;
18138;SDS011;9195;53.176;9.486;2022-10-26T01:59:27;3.23;;;3.13;;
18138;SDS011;9195;53.176;9.486;2022-10-26T02:08:02;3.50;;;3.40;;
18138;SDS011;9195;53.176;9.486;2022-10-26T02:16:21;3.70;;;3.60;;
18138;SDS011;9195;53.176;9.486;2022-10-26T02:21:28;3.60;;;3.50;;
18138;SDS011;9195;53.176;9.486;2022-10-26T02:24:00;3.90;;;3.80;;
18138;SDS011;9195;53.176;9.486;2022-10-26T02:26:28;4.17;;;4.07;;
18138;SDS011;9195;53.176;9.486;2022-10-26T02:28:58;4.10;;;4.00;;
18138;SDS011;9195;53.176;9.486;2022-10-26T02:31:27;3.70;;;3.60;;
18138;SDS011;9195;53.176;9.486;2022-10-26T02:33:55;3.87;;;3.77;;
18138;SDS011;9195;53.176;9.486;2022-10-26T02:36:24;3.67;;;3.57;;
18138;SDS011;9195;53.176;9.486;2022-10-26T02:38:53;4.00;;;3.90;;
18138;SDS011;9195;53.176;9.486;2022-10-26T02:41:21;3.73;;;3.63;;
18138;SDS011;9195;53.176;9.486;2022-10-26T02:44:03;3.70;;;3.60;;
18138;SDS011;9195;53.176;9.486;2022-10-26T02:46:30;4.00;;;3.90;;
18138;SDS011;9195;53.176;9.486;2022-10-26T02:48:56;3.67;;;3.57;;
18138;SDS011;9195;53.176;9.486;2022-10-26T02:56:53;3.70;;;3.60;;
18138;SDS011;9195;53.176;9.486;2022-10-26T02:59:26;4.50;;;4.30;;
18138;SDS011;9195;53.176;9.486;2022-10-26T03:01:55;3.90;;;3.80;;
18138;SDS011;9195;53.176;9.486;2022-10-26T03:04:26;3.70;;;3.60;;
18138;SDS011;9195;53.176;9.486;2022-10-26T03:06:54;4.40;;;4.20;;
18138;SDS011;9195;53.176;9.486;2022-10-26T03:09:19;4.07;;;3.97;;
18138;SDS011;9195;53.176;9.486;2022-10-26T03:11:45;4.10;;;4.00;;
18138;SDS011;9195;53.176;9.486;2022-10-26T03:14:11;4.17;;;4.03;;
18138;SDS011;9195;53.176;9.486;2022-10-26T03:16:37;4.10;;;4.00;;
18138;SDS011;9195;53.176;9.486;2022-10-26T03:19:02;4.50;;;4.30;;
18138;SDS011;9195;53.176;9.486;2022-10-26T03:21:28;3.73;;;3.63;;
18138;SDS011;9195;53.176;9.486;2022-10-26T03:23:53;3.90;;;3.80;;
18138;SDS011;9195;53.176;9.486;2022-10-26T03:26:19;4.10;;;4.00;;
18138;SDS011;9195;53.176;9.486;2022-10-26T03:28:44;4.17;;;4.07;;
18138;SDS011;9195;53.176;9.486;2022-10-26T03:31:10;3.70;;;3.60;;
18138;SDS011;9195;53.176;9.486;2022-10-26T03:33:36;4.00;;;3.90;;
18138;SDS011;9195;53.176;9.486;2022-10-26T03:36:02;3.60;;;3.50;;
18138;SDS011;9195;53.176;9.486;2022-10-26T03:38:27;4.40;;;4.20;;
18138;SDS011;9195;53.176;9.486;2022-10-26T03:40:53;3.93;;;3.83;;
18138;SDS011;9195;53.176;9.486;2022-10-26T03:43:18;3.90;;;3.80;;
18138;SDS011;9195;53.176;9.486;2022-10-26T03:45:44;3.83;;;3.73;;
18138;SDS011;9195;53.176;9.486;2022-10-26T03:48:10;3.60;;;3.50;;
18138;SDS011;9195;53.176;9.486;2022-10-26T03:50:35;3.60;;;3.50;;
18138;SDS011;9195;53.176;9.486;2022-10-26T03:53:01;3.73;;;3.63;;
18138;SDS011;9195;53.176;9.486;2022-10-26T03:55:26;3.83;;;3.73;;
18138;SDS011;9195;53.176;9.486;2022-10-26T03:57:52;3.80;;;3.70;;
18138;SDS011;9195;53.176;9.486;2022-10-26T04:00:18;4.00;;;3.90;;
18138;SDS011;9195;53.176;9.486;2022-10-26T04:02:44;4.03;;;3.93;;
18138;SDS011;9195;53.176;9.486;2022-10-26T04:05:12;4.23;;;4.10;;
18138;SDS011;9195;53.176;9.486;2022-10-26T04:07:38;4.40;;;4.20;;
18138;SDS011;9195;53.176;9.486;2022-10-26T04:10:04;4.50;;;4.30;;
18138;SDS011;9195;53.176;9.486;2022-10-26T04:12:30;4.50;;;4.30;;
18138;SDS011;9195;53.176;9.486;2022-10-26T04:14:55;4.50;;;4.30;;
18138;SDS011;9195;53.176;9.486;2022-10-26T04:17:24;4.00;;;3.90;;
18138;SDS011;9195;53.176;9.486;2022-10-26T04:19:50;3.90;;;3.80;;
18138;SDS011;9195;53.176;9.486;2022-10-26T04:22:16;3.60;;;3.50;;
18138;SDS011;9195;53.176;9.486;2022-10-26T04:24:41;3.70;;;3.60;;
18138;SDS011;9195;53.176;9.486;2022-10-26T04:27:07;3.90;;;3.80;;
18138;SDS011;9195;53.176;9.486;2022-10-26T04:29:32;3.73;;;3.63;;
18138;SDS011;9195;53.176;9.486;2022-10-26T04:31:58;3.53;;;3.43;;
18138;SDS011;9195;53.176;9.486;2022-10-26T04:34:23;3.83;;;3.73;;
18138;SDS011;9195;53.176;9.486;2022-10-26T04:36:49;3.53;;;3.43;;
18138;SDS011;9195;53.176;9.486;2022-10-26T04:39:15;3.43;;;3.33;;
18138;SDS011;9195;53.176;9.486;2022-10-26T04:41:40;3.80;;;3.70;;
18138;SDS011;9195;53.176;9.486;2022-10-26T04:44:06;3.20;;;3.10;;
18138;SDS011;9195;53.176;9.486;2022-10-26T04:46:31;3.67;;;3.57;;
18138;SDS011;9195;53.176;9.486;2022-10-26T04:48:57;3.90;;;3.80;;
18138;SDS011;9195;53.176;9.486;2022-10-26T04:51:23;3.80;;;3.70;;
18138;SDS011;9195;53.176;9.486;2022-10-26T04:53:48;3.83;;;3.73;;
18138;SDS011;9195;53.176;9.486;2022-10-26T04:56:14;3.17;;;3.07;;
18138;SDS011;9195;53.176;9.486;2022-10-26T04:58:39;3.80;;;3.70;;
18138;SDS011;9195;53.176;9.486;2022-10-26T05:01:05;3.73;;;3.63;;
18138;SDS011;9195;53.176;9.486;2022-10-26T05:03:30;3.30;;;3.20;;
18138;SDS011;9195;53.176;9.486;2022-10-26T05:05:59;3.67;;;3.57;;
18138;SDS011;9195;53.176;9.486;2022-10-26T05:08:26;3.80;;;3.70;;
18138;SDS011;9195;53.176;9.486;2022-10-26T05:10:53;3.90;;;3.80;;
18138;SDS011;9195;53.176;9.486;2022-10-26T05:13:19;4.20;;;4.10;;
18138;SDS011;9195;53.176;9.486;2022-10-26T05:15:44;4.13;;;4.03;;
18138;SDS011;9195;53.176;9.486;2022-10-26T05:18:10;3.93;;;3.83;;
18138;SDS011;9195;53.176;9.486;2022-10-26T05:20:36;3.60;;;3.50;;
18138;SDS011;9195;53.176;9.486;2022-10-26T05:23:02;3.90;;;3.80;;
18138;SDS011;9195;53.176;9.486;2022-10-26T05:25:30;3.80;;;3.70;;
18138;SDS011;9195;53.176;9.486;2022-10-26T05:27:58;3.20;;;3.10;;
18138;SDS011;9195;53.176;9.486;2022-10-26T05:30:25;3.20;;;3.10;;
18138;SDS011;9195;53.176;9.486;2022-10-26T05:32:58;3.23;;;3.13;;
18138;SDS011;9195;53.176;9.486;2022-10-26T05:35:25;3.40;;;3.30;;
18138;SDS011;9195;53.176;9.486;2022-10-26T05:37:51;3.20;;;3.10;;
18138;SDS011;9195;53.176;9.486;2022-10-26T05:40:17;3.47;;;3.37;;
18138;SDS011;9195;53.176;9.486;2022-10-26T05:42:43;3.20;;;3.10;;
18138;SDS011;9195;53.176;9.486;2022-10-26T05:45:09;3.60;;;3.50;;
18138;SDS011;9195;53.176;9.486;2022-10-26T05:47:42;3.30;;;3.20;;
18138;SDS011;9195;53.176;9.486;2022-10-26T05:50:09;3.30;;;3.20;;
18138;SDS011;9195;53.176;9.486;2022-10-26T05:52:45;3.30;;;3.20;;
18138;SDS011;9195;53.176;9.486;2022-10-26T05:55:12;3.30;;;3.20;;
18138;SDS011;9195;53.176;9.486;2022-10-26T05:57:39;3.20;;;3.10;;
18138;SDS011;9195;53.176;9.486;2022-10-26T06:00:06;3.83;;;3.73;;
18138;SDS011;9195;53.176;9.486;2022-10-26T06:05:16;3.90;;;3.80;;
18138;SDS011;9195;53.176;9.486;2022-10-26T06:07:46;4.50;;;4.30;;
18138;SDS011;9195;53.176;9.486;2022-10-26T06:10:12;4.37;;;4.20;;
18138;SDS011;9195;53.176;9.486;2022-10-26T06:12:38;4.47;;;4.27;;
18138;SDS011;9195;53.176;9.486;2022-10-26T06:15:04;4.23;;;4.10;;
18138;SDS011;9195;53.176;9.486;2022-10-26T06:31:12;4.13;;;4.03;;
18138;SDS011;9195;53.176;9.486;2022-10-26T06:33:38;3.90;;;3.80;;
18138;SDS011;9195;53.176;9.486;2022-10-26T06:38:42;4.03;;;3.93;;
18138;SDS011;9195;53.176;9.486;2022-10-26T06:41:09;3.70;;;3.60;;
18138;SDS011;9195;53.176;9.486;2022-10-26T06:43:39;3.80;;;3.70;;
18138;SDS011;9195;53.176;9.486;2022-10-26T06:46:09;3.90;;;3.80;;
18138;SDS011;9195;53.176;9.486;2022-10-26T06:48:54;3.57;;;3.47;;
18138;SDS011;9195;53.176;9.486;2022-10-26T06:51:24;3.80;;;3.70;;
18138;SDS011;9195;53.176;9.486;2022-10-26T06:54:04;3.57;;;3.47;;
18138;SDS011;9195;53.176;9.486;2022-10-26T06:56:36;3.63;;;3.53;;
18138;SDS011;9195;53.176;9.486;2022-10-26T06:59:12;4.03;;;3.93;;
18138;SDS011;9195;53.176;9.486;2022-10-26T07:01:47;3.60;;;3.50;;
18138;SDS011;9195;53.176;9.486;2022-10-26T07:04:13;3.80;;;3.70;;
18138;SDS011;9195;53.176;9.486;2022-10-26T07:06:39;3.93;;;3.83;;
18138;SDS011;9195;53.176;9.486;2022-10-26T07:09:04;4.10;;;4.00;;
18138;SDS011;9195;53.176;9.486;2022-10-26T07:11:30;3.63;;;3.53;;
18138;SDS011;9195;53.176;9.486;2022-10-26T07:13:55;3.77;;;3.67;;
18138;SDS011;9195;53.176;9.486;2022-10-26T07:16:21;3.60;;;3.50;;
18138;SDS011;9195;53.176;9.486;2022-10-26T07:18:47;3.97;;;3.87;;
18138;SDS011;9195;53.176;9.486;2022-10-26T07:21:12;4.10;;;4.00;;
18138;SDS011;9195;53.176;9.486;2022-10-26T07:23:38;4.10;;;4.00;;
18138;SDS011;9195;53.176;9.486;2022-10-26T07:26:04;4.40;;;4.20;;
18138;SDS011;9195;53.176;9.486;2022-10-26T07:28:29;4.47;;;4.27;;
18138;SDS011;9195;53.176;9.486;2022-10-26T07:30:56;4.20;;;4.10;;
18138;SDS011;9195;53.176;9.486;2022-10-26T07:33:22;4.40;;;4.20;;
18138;SDS011;9195;53.176;9.486;2022-10-26T07:35:48;3.87;;;3.77;;
18138;SDS011;9195;53.176;9.486;2022-10-26T07:38:14;3.80;;;3.70;;
18138;SDS011;9195;53.176;9.486;2022-10-26T07:40:39;3.57;;;3.47;;
18138;SDS011;9195;53.176;9.486;2022-10-26T07:43:05;4.50;;;4.30;;
18138;SDS011;9195;53.176;9.486;2022-10-26T07:45:30;4.20;;;4.10;;
18138;SDS011;9195;53.176;9.486;2022-10-26T07:47:56;4.00;;;3.90;;
18138;SDS011;9195;53.176;9.486;2022-10-26T07:50:22;3.97;;;3.87;;
18138;SDS011;9195;53.176;9.486;2022-10-26T07:52:48;5.27;;;5.07;;
18138;SDS011;9195;53.176;9.486;2022-10-26T07:55:14;4.40;;;4.20;;
18138;SDS011;9195;53.176;9.486;2022-10-26T07:57:40;4.80;;;4.60;;
18138;SDS011;9195;53.176;9.486;2022-10-26T08:00:06;5.60;;;5.40;;
18138;SDS011;9195;53.176;9.486;2022-10-26T08:02:33;4.60;;;4.40;;
18138;SDS011;9195;53.176;9.486;2022-10-26T08:04:59;6.33;;;6.13;;
18138;SDS011;9195;53.176;9.486;2022-10-26T08:07:25;5.00;;;4.80;;
18138;SDS011;9195;53.176;9.486;2022-10-26T08:09:51;5.50;;;5.30;;
18138;SDS011;9195;53.176;9.486;2022-10-26T08:12:17;6.10;;;5.90;;
18138;SDS011;9195;53.176;9.486;2022-10-26T08:14:42;5.70;;;5.50;;
18138;SDS011;9195;53.176;9.486;2022-10-26T08:17:08;5.70;;;5.50;;
18138;SDS011;9195;53.176;9.486;2022-10-26T08:19:34;7.07;;;6.77;;
18138;SDS011;9195;53.176;9.486;2022-10-26T08:22:00;6.37;;;6.17;;
18138;SDS011;9195;53.176;9.486;2022-10-26T08:24:25;6.23;;;6.03;;
18138;SDS011;9195;53.176;9.486;2022-10-26T08:26:51;7.73;;;7.43;;
18138;SDS011;9195;53.176;9.486;2022-10-26T08:29:16;7.13;;;6.83;;
18138;SDS011;9195;53.176;9.486;2022-10-26T08:31:42;7.60;;;7.30;;
18138;SDS011;9195;53.176;9.486;2022-10-26T08:34:08;7.47;;;7.17;;
18138;SDS011;9195;53.176;9.486;2022-10-26T08:36:33;7.97;;;7.67;;
18138;SDS011;9195;53.176;9.486;2022-10-26T08:38:59;7.93;;;7.63;;
18138;SDS011;9195;53.176;9.486;2022-10-26T08:41:35;8.43;;;8.13;;
18138;SDS011;9195;53.176;9.486;2022-10-26T08:47:01;9.83;;;9.43;;
18138;SDS011;9195;53.176;9.486;2022-10-26T08:52:10;9.00;;;8.60;;
18138;SDS011;9195;53.176;9.486;2022-10-26T08:54:41;9.17;;;8.77;;
18138;SDS011;9195;53.176;9.486;2022-10-26T08:57:25;10.10;;;9.70;;
18138;SDS011;9195;53.176;9.486;2022-10-26T09:00:04;9.40;;;9.00;;
18138;SDS011;9195;53.176;9.486;2022-10-26T09:02:31;10.63;;;10.23;;
18138;SDS011;9195;53.176;9.486;2022-10-26T09:04:57;10.37;;;9.97;;
18138;SDS011;9195;53.176;9.486;2022-10-26T09:07:27;11.30;;;10.80;;
18138;SDS011;9195;53.176;9.486;2022-10-26T09:10:34;11.70;;;11.20;;
18138;SDS011;9195;53.176;9.486;2022-10-26T09:16:26;12.00;;;11.50;;
18138;SDS011;9195;53.176;9.486;2022-10-26T09:21:59;12.67;;;12.13;;
18138;SDS011;9195;53.176;9.486;2022-10-26T09:24:32;12.93;;;12.33;;
18138;SDS011;9195;53.176;9.486;2022-10-26T09:27:06;12.93;;;12.33;;
18138;SDS011;9195;53.176;9.486;2022-10-26T09:29:37;12.97;;;12.37;;
18138;SDS011;9195;53.176;9.486;2022-10-26T09:32:05;12.90;;;12.30;;
18138;SDS011;9195;53.176;9.486;2022-10-26T09:34:58;13.10;;;12.50;;
18138;SDS011;9195;53.176;9.486;2022-10-26T09:37:28;13.10;;;12.50;;
18138;SDS011;9195;53.176;9.486;2022-10-26T09:50:45;13.03;;;12.43;;
18138;SDS011;9195;53.176;9.486;2022-10-26T09:53:13;13.20;;;12.60;;
18138;SDS011;9195;53.176;9.486;2022-10-26T09:55:44;13.67;;;13.07;;
18138;SDS011;9195;53.176;9.486;2022-10-26T09:58:13;13.60;;;13.00;;
18138;SDS011;9195;53.176;9.486;2022-10-26T10:00:48;13.63;;;13.03;;
18138;SDS011;9195;53.176;9.486;2022-10-26T10:03:17;14.07;;;13.47;;
18138;SDS011;9195;53.176;9.486;2022-10-26T10:05:49;13.77;;;13.17;;
18138;SDS011;9195;53.176;9.486;2022-10-26T10:08:21;13.73;;;13.13;;
18138;SDS011;9195;53.176;9.486;2022-10-26T10:10:52;13.50;;;12.90;;
18138;SDS011;9195;53.176;9.486;2022-10-26T10:13:30;14.30;;;13.70;;
18138;SDS011;9195;53.176;9.486;2022-10-26T10:16:13;14.07;;;13.47;;
18138;SDS011;9195;53.176;9.486;2022-10-26T10:18:51;13.83;;;13.23;;
18138;SDS011;9195;53.176;9.486;2022-10-26T10:21:19;13.90;;;13.30;;
18138;SDS011;9195;53.176;9.486;2022-10-26T10:23:46;13.95;;;13.35;;
18138;SDS011;9195;53.176;9.486;2022-10-26T10:26:13;14.52;;;13.82;;
18138;SDS011;9195;53.176;9.486;2022-10-26T10:28:40;14.57;;;13.88;;
18138;SDS011;9195;53.176;9.486;2022-10-26T10:31:19;14.70;;;14.00;;
18138;SDS011;9195;53.176;9.486;2022-10-26T10:33:46;14.70;;;14.00;;
18138;SDS011;9195;53.176;9.486;2022-10-26T10:36:17;14.80;;;14.10;;
18138;SDS011;9195;53.176;9.486;2022-10-26T10:38:45;14.68;;;14.00;;
18138;SDS011;9195;53.176;9.486;2022-10-26T10:41:29;14.45;;;13.82;;
18138;SDS011;9195;53.176;9.486;2022-10-26T10:44:04;14.50;;;13.85;;
18138;SDS011;9195;53.176;9.486;2022-10-26T10:46:49;15.07;;;14.38;;
18138;SDS011;9195;53.176;9.486;2022-10-26T10:49:24;15.13;;;14.43;;
18138;SDS011;9195;53.176;9.486;2022-10-26T10:51:51;14.85;;;14.15;;
18138;SDS011;9195;53.176;9.486;2022-10-26T11:04:57;15.38;;;14.68;;
18138;SDS011;9195;53.176;9.486;2022-10-26T11:07:26;15.60;;;14.90;;
18138;SDS011;9195;53.176;9.486;2022-10-26T11:09:53;15.60;;;14.90;;
18138;SDS011;9195;53.176;9.486;2022-10-26T11:12:23;16.05;;;15.30;;
18138;SDS011;9195;53.176;9.486;2022-10-26T11:15:04;16.23;;;15.43;;
18138;SDS011;9195;53.176;9.486;2022-10-26T11:18:36;16.30;;;15.50;;
18138;SDS011;9195;53.176;9.486;2022-10-26T11:20:35;15.57;;;14.88;;
18138;SDS011;9195;53.176;9.486;2022-10-26T11:23:11;15.50;;;14.80;;
18138;SDS011;9195;53.176;9.486;2022-10-26T11:31:24;15.18;;;14.48;;
18138;SDS011;9195;53.176;9.486;2022-10-26T11:36:43;14.63;;;13.98;;
18138;SDS011;9195;53.176;9.486;2022-10-26T11:39:20;14.90;;;14.20;;
18138;SDS011;9195;53.176;9.486;2022-10-26T11:42:13;14.93;;;14.23;;
18138;SDS011;9195;53.176;9.486;2022-10-26T11:44:44;14.70;;;14.00;;
18138;SDS011;9195;53.176;9.486;2022-10-26T11:47:35;14.70;;;14.00;;
18138;SDS011;9195;53.176;9.486;2022-10-26T11:50:12;15.07;;;14.38;;
18138;SDS011;9195;53.176;9.486;2022-10-26T11:52:57;14.77;;;14.07;;
18138;SDS011;9195;53.176;9.486;2022-10-26T11:55:33;14.90;;;14.20;;
18138;SDS011;9195;53.176;9.486;2022-10-26T11:57:59;14.82;;;14.13;;
18138;SDS011;9195;53.176;9.486;2022-10-26T12:00:26;14.60;;;13.90;;
18138;SDS011;9195;53.176;9.486;2022-10-26T12:03:08;14.45;;;13.75;;
18138;SDS011;9195;53.176;9.486;2022-10-26T12:05:46;14.50;;;13.80;;
18138;SDS011;9195;53.176;9.486;2022-10-26T12:08:18;14.63;;;13.93;;
18138;SDS011;9195;53.176;9.486;2022-10-26T12:13:48;14.63;;;13.93;;
18138;SDS011;9195;53.176;9.486;2022-10-26T12:16:20;14.30;;;13.70;;
18138;SDS011;9195;53.176;9.486;2022-10-26T12:19:00;14.25;;;13.65;;
18138;SDS011;9195;53.176;9.486;2022-10-26T12:21:31;14.38;;;13.77;;
18138;SDS011;9195;53.176;9.486;2022-10-26T12:23:58;14.38;;;13.77;;
18138;SDS011;9195;53.176;9.486;2022-10-26T12:34:01;13.40;;;12.80;;
18138;SDS011;9195;53.176;9.486;2022-10-26T12:46:57;14.03;;;13.43;;
18138;SDS011;9195;53.176;9.486;2022-10-26T13:00:49;14.35;;;13.75;;
18138;SDS011;9195;53.176;9.486;2022-10-26T13:08:45;13.90;;;13.30;;
18138;SDS011;9195;53.176;9.486;2022-10-26T13:11:17;14.20;;;13.60;;
18138;SDS011;9195;53.176;9.486;2022-10-26T13:13:56;14.10;;;13.50;;
18138;SDS011;9195;53.176;9.486;2022-10-26T13:16:25;14.07;;;13.48;;
18138;SDS011;9195;53.176;9.486;2022-10-26T13:18:52;14.25;;;13.65;;
18138;SDS011;9195;53.176;9.486;2022-10-26T13:21:18;14.48;;;13.88;;
18138;SDS011;9195;53.176;9.486;2022-10-26T13:23:45;14.30;;;13.70;;
18138;SDS011;9195;53.176;9.486;2022-10-26T13:26:18;13.80;;;13.20;;
18138;SDS011;9195;53.176;9.486;2022-10-26T13:33:59;13.32;;;12.73;;
18138;SDS011;9195;53.176;9.486;2022-10-26T13:38:55;13.50;;;12.90;;
18138;SDS011;9195;53.176;9.486;2022-10-26T13:41:33;13.57;;;12.98;;
18138;SDS011;9195;53.176;9.486;2022-10-26T13:44:04;13.40;;;12.80;;
18138;SDS011;9195;53.176;9.486;2022-10-26T13:46:35;13.43;;;12.82;;
18138;SDS011;9195;53.176;9.486;2022-10-26T13:49:15;13.52;;;12.93;;
18138;SDS011;9195;53.176;9.486;2022-10-26T13:51:47;13.50;;;12.90;;
18138;SDS011;9195;53.176;9.486;2022-10-26T13:59:40;13.30;;;12.70;;
18138;SDS011;9195;53.176;9.486;2022-10-26T14:04:44;14.52;;;13.93;;
18138;SDS011;9195;53.176;9.486;2022-10-26T14:07:14;14.25;;;13.65;;
18138;SDS011;9195;53.176;9.486;2022-10-26T14:09:48;15.35;;;14.65;;
18138;SDS011;9195;53.176;9.486;2022-10-26T14:12:18;15.82;;;15.13;;
18138;SDS011;9195;53.176;9.486;2022-10-26T14:14:44;14.63;;;14.02;;
18138;SDS011;9195;53.176;9.486;2022-10-26T14:17:17;14.50;;;13.90;;
18138;SDS011;9195;53.176;9.486;2022-10-26T14:19:45;14.73;;;14.02;;
18138;SDS011;9195;53.176;9.486;2022-10-26T14:22:25;15.10;;;14.40;;
18138;SDS011;9195;53.176;9.486;2022-10-26T14:24:53;14.40;;;13.80;;
18138;SDS011;9195;53.176;9.486;2022-10-26T14:27:24;14.15;;;13.55;;
18138;SDS011;9195;53.176;9.486;2022-10-26T14:29:55;14.27;;;13.68;;
18138;SDS011;9195;53.176;9.486;2022-10-26T14:32:21;14.32;;;13.73;;
18138;SDS011;9195;53.176;9.486;2022-10-26T14:34:50;14.70;;;14.00;;
18138;SDS011;9195;53.176;9.486;2022-10-26T14:37:22;14.07;;;13.48;;
18138;SDS011;9195;53.176;9.486;2022-10-26T14:40:03;14.48;;;13.88;;
18138;SDS011;9195;53.176;9.486;2022-10-26T14:42:31;14.30;;;13.70;;
18138;SDS011;9195;53.176;9.486;2022-10-26T14:45:03;13.82;;;13.23;;
18138;SDS011;9195;53.176;9.486;2022-10-26T14:47:29;14.27;;;13.68;;
18138;SDS011;9195;53.176;9.486;2022-10-26T14:49:57;13.88;;;13.27;;
18138;SDS011;9195;53.176;9.486;2022-10-26T14:52:33;13.20;;;12.60;;
18138;SDS011;9195;53.176;9.486;2022-10-26T14:57:39;13.50;;;12.90;;
18138;SDS011;9195;53.176;9.486;2022-10-26T15:00:40;12.60;;;12.10;;
18138;SDS011;9195;53.176;9.486;2022-10-26T15:02:59;12.57;;;12.07;;
18138;SDS011;9195;53.176;9.486;2022-10-26T15:05:26;13.20;;;12.60;;
18138;SDS011;9195;53.176;9.486;2022-10-26T15:07:56;12.60;;;12.10;;
18138;SDS011;9195;53.176;9.486;2022-10-26T15:15:57;12.80;;;12.30;;
18138;SDS011;9195;53.176;9.486;2022-10-26T15:18:41;12.73;;;12.23;;
18138;SDS011;9195;53.176;9.486;2022-10-26T15:21:30;12.53;;;12.03;;
18138;SDS011;9195;53.176;9.486;2022-10-26T15:23:56;12.43;;;11.93;;
18138;SDS011;9195;53.176;9.486;2022-10-26T15:26:23;12.90;;;12.30;;
18138;SDS011;9195;53.176;9.486;2022-10-26T15:28:49;12.00;;;11.50;;
18138;SDS011;9195;53.176;9.486;2022-10-26T15:38:43;11.97;;;11.47;;
18138;SDS011;9195;53.176;9.486;2022-10-26T15:41:43;11.40;;;10.90;;
18138;SDS011;9195;53.176;9.486;2022-10-26T15:44:03;12.00;;;11.50;;
18138;SDS011;9195;53.176;9.486;2022-10-26T15:46:32;11.60;;;11.10;;
18138;SDS011;9195;53.176;9.486;2022-10-26T15:48:59;11.30;;;10.80;;
18138;SDS011;9195;53.176;9.486;2022-10-26T15:51:28;11.23;;;10.73;;
18138;SDS011;9195;53.176;9.486;2022-10-26T15:53:55;10.80;;;10.40;;
18138;SDS011;9195;53.176;9.486;2022-10-26T15:56:22;11.20;;;10.70;;
18138;SDS011;9195;53.176;9.486;2022-10-26T15:58:49;10.47;;;10.07;;
18138;SDS011;9195;53.176;9.486;2022-10-26T16:01:19;11.30;;;10.80;;
18138;SDS011;9195;53.176;9.486;2022-10-26T16:03:47;11.00;;;10.50;;
18138;SDS011;9195;53.176;9.486;2022-10-26T16:08:59;10.20;;;9.80;;
18138;SDS011;9195;53.176;9.486;2022-10-26T16:11:26;10.20;;;9.80;;
18138;SDS011;9195;53.176;9.486;2022-10-26T16:13:52;10.03;;;9.63;;
18138;SDS011;9195;53.176;9.486;2022-10-26T16:16:19;9.70;;;9.30;;
18138;SDS011;9195;53.176;9.486;2022-10-26T16:18:46;9.90;;;9.50;;
18138;SDS011;9195;53.176;9.486;2022-10-26T16:21:16;9.90;;;9.50;;
18138;SDS011;9195;53.176;9.486;2022-10-26T16:23:53;9.83;;;9.43;;
18138;SDS011;9195;53.176;9.486;2022-10-26T16:26:21;9.80;;;9.40;;
18138;SDS011;9195;53.176;9.486;2022-10-26T16:28:47;9.60;;;9.20;;
18138;SDS011;9195;53.176;9.486;2022-10-26T16:31:14;9.20;;;8.80;;
18138;SDS011;9195;53.176;9.486;2022-10-26T16:33:41;9.40;;;9.00;;
18138;SDS011;9195;53.176;9.486;2022-10-26T16:36:08;9.53;;;9.13;;
18138;SDS011;9195;53.176;9.486;2022-10-26T16:38:35;9.30;;;8.90;;
18138;SDS011;9195;53.176;9.486;2022-10-26T16:41:05;9.63;;;9.23;;
18138;SDS011;9195;53.176;9.486;2022-10-26T16:43:34;9.00;;;8.60;;
18138;SDS011;9195;53.176;9.486;2022-10-26T16:46:23;9.33;;;8.93;;
18138;SDS011;9195;53.176;9.486;2022-10-26T16:48:48;9.30;;;8.90;;
18138;SDS011;9195;53.176;9.486;2022-10-26T16:51:18;9.50;;;9.10;;
18138;SDS011;9195;53.176;9.486;2022-10-26T16:53:51;9.77;;;9.37;;
18138;SDS011;9195;53.176;9.486;2022-10-26T16:56:21;9.93;;;9.53;;
18138;SDS011;9195;53.176;9.486;2022-10-26T16:58:49;9.50;;;9.10;;
18138;SDS011;9195;53.176;9.486;2022-10-26T17:01:15;9.00;;;8.60;;
18138;SDS011;9195;53.176;9.486;2022-10-26T17:03:42;8.80;;;8.43;;
18138;SDS011;9195;53.176;9.486;2022-10-26T17:06:09;8.33;;;8.03;;
18138;SDS011;9195;53.176;9.486;2022-10-26T17:08:35;8.00;;;7.70;;
18138;SDS011;9195;53.176;9.486;2022-10-26T17:11:11;8.07;;;7.77;;
18138;SDS011;9195;53.176;9.486;2022-10-26T17:13:41;7.80;;;7.50;;
18138;SDS011;9195;53.176;9.486;2022-10-26T17:16:11;7.60;;;7.30;;
18138;SDS011;9195;53.176;9.486;2022-10-26T17:18:39;7.67;;;7.37;;
18138;SDS011;9195;53.176;9.486;2022-10-26T17:21:06;7.30;;;7.00;;
18138;SDS011;9195;53.176;9.486;2022-10-26T17:23:32;7.60;;;7.30;;
18138;SDS011;9195;53.176;9.486;2022-10-26T17:26:02;7.33;;;7.03;;
18138;SDS011;9195;53.176;9.486;2022-10-26T17:28:29;8.40;;;8.10;;
18138;SDS011;9195;53.176;9.486;2022-10-26T17:31:02;8.30;;;8.00;;
18138;SDS011;9195;53.176;9.486;2022-10-26T17:33:27;8.40;;;8.10;;
18138;SDS011;9195;53.176;9.486;2022-10-26T17:35:55;8.50;;;8.20;;
18138;SDS011;9195;53.176;9.486;2022-10-26T17:38:20;8.23;;;7.93;;
18138;SDS011;9195;53.176;9.486;2022-10-26T17:40:46;8.03;;;7.73;;
18138;SDS011;9195;53.176;9.486;2022-10-26T17:43:11;8.07;;;7.77;;
18138;SDS011;9195;53.176;9.486;2022-10-26T17:45:37;8.23;;;7.93;;
18138;SDS011;9195;53.176;9.486;2022-10-26T17:48:03;8.23;;;7.93;;
18138;SDS011;9195;53.176;9.486;2022-10-26T17:50:28;8.10;;;7.80;;
18138;SDS011;9195;53.176;9.486;2022-10-26T17:52:54;7.90;;;7.60;;
18138;SDS011;9195;53.176;9.486;2022-10-26T17:55:19;7.90;;;7.60;;
18138;SDS011;9195;53.176;9.486;2022-10-26T17:57:45;7.80;;;7.50;;